Time;durP1;ratioP1;P1;durP2;ratioP2;P2;SDS_P1;SDS_P2;PMS_P1;PMS_P2;Temp;Humidity;BMP_temperature;BMP_pressure;BME280_temperature;BME280_humidity;BME280_pressure;Samples;Min_cycle;Max_cycle;Signal;HPM_P1;HPM_P2
2021/06/19 00:01:25;;;;;;;7.30;3.30;;;23.60;99.90;;;;;;5010716;28;20175;-76
2021/06/19 00:03:51;;;;;;;8.67;3.13;;;23.50;99.90;;;;;;5010754;28;20169;-76
2021/06/19 00:06:16;;;;;;;7.73;3.50;;;23.50;99.90;;;;;;4994561;28;20306;-76
2021/06/19 00:08:42;;;;;;;6.28;3.30;;;23.50;99.90;;;;;;4995869;28;20223;-76
2021/06/19 00:11:07;;;;;;;5.10;2.90;;;23.50;99.90;;;;;;5010903;28;20176;-76
2021/06/19 00:13:33;;;;;;;6.77;2.97;;;23.50;99.90;;;;;;4978131;28;20184;-76
2021/06/19 00:15:58;;;;;;;7.97;3.30;;;23.50;99.90;;;;;;5010578;28;20200;-76
2021/06/19 00:18:24;;;;;;;4.50;3.08;;;23.60;99.90;;;;;;4978055;28;20204;-76
2021/06/19 00:20:50;;;;;;;5.72;3.33;;;23.60;99.90;;;;;;4994233;28;20172;-76
2021/06/19 00:23:16;;;;;;;4.80;2.90;;;23.50;99.90;;;;;;4994085;28;20549;-76
2021/06/19 00:25:41;;;;;;;4.03;3.10;;;23.50;99.90;;;;;;4994108;28;20286;-76
2021/06/19 00:28:07;;;;;;;5.00;3.07;;;23.50;99.90;;;;;;5010692;28;20173;-76
2021/06/19 00:30:33;;;;;;;5.37;3.13;;;23.50;99.90;;;;;;5010534;28;20176;-76
2021/06/19 00:32:58;;;;;;;5.20;3.10;;;23.40;99.90;;;;;;4995181;28;20559;-76
2021/06/19 00:35:24;;;;;;;6.43;3.23;;;23.40;99.90;;;;;;4993450;28;20211;-76
2021/06/19 00:37:49;;;;;;;5.07;2.90;;;23.30;99.90;;;;;;4995302;28;20176;-76
2021/06/19 00:40:16;;;;;;;10.20;3.47;;;23.30;99.90;;;;;;4993961;28;20234;-76
2021/06/19 00:42:50;;;;;;;4.85;3.10;;;23.30;99.90;;;;;;5010168;28;20173;-76
2021/06/19 00:45:16;;;;;;;6.63;3.40;;;23.20;99.90;;;;;;4993880;28;20202;-76
2021/06/19 00:47:41;;;;;;;4.50;3.00;;;23.20;99.90;;;;;;4994033;28;20619;-76
2021/06/19 00:50:07;;;;;;;9.67;3.33;;;23.20;99.90;;;;;;4995356;28;20183;-76
2021/06/19 00:52:33;;;;;;;7.63;3.40;;;23.20;99.90;;;;;;5010203;28;20184;-76
2021/06/19 00:54:59;;;;;;;3.60;3.22;;;23.10;99.90;;;;;;5009698;28;20264;-76
2021/06/19 00:57:24;;;;;;;7.40;3.40;;;23.10;99.90;;;;;;4993786;28;20192;-76
2021/06/19 00:59:50;;;;;;;5.07;3.50;;;23.00;99.90;;;;;;5009910;28;20684;-76
2021/06/19 01:02:15;;;;;;;4.13;3.38;;;23.00;99.90;;;;;;4993633;28;20759;-76
2021/06/19 01:04:41;;;;;;;5.50;3.20;;;22.90;99.90;;;;;;5009622;28;20190;-76
2021/06/19 01:07:06;;;;;;;10.00;3.83;;;22.80;99.90;;;;;;4977065;28;20690;-76
2021/06/19 01:09:32;;;;;;;9.67;3.53;;;22.80;99.90;;;;;;4993555;28;20553;-76
2021/06/19 01:11:58;;;;;;;21.50;5.03;;;22.70;99.90;;;;;;4993391;28;20181;-76
2021/06/19 01:14:23;;;;;;;8.77;4.30;;;22.70;99.90;;;;;;5009661;28;20180;-76
2021/06/19 01:16:49;;;;;;;7.10;4.50;;;22.70;99.90;;;;;;4993147;28;20207;-76
2021/06/19 01:19:15;;;;;;;14.53;5.63;;;22.70;99.90;;;;;;4993362;28;20667;-76
2021/06/19 01:21:41;;;;;;;20.63;6.87;;;22.60;99.90;;;;;;4993222;28;20195;-76
2021/06/19 01:24:12;;;;;;;9.53;6.13;;;22.50;99.90;;;;;;5009337;28;20254;-76
2021/06/19 01:26:37;;;;;;;21.77;5.77;;;22.50;99.90;;;;;;4993285;28;20709;-76
2021/06/19 01:29:03;;;;;;;0.00;0.00;;;22.40;99.90;;;;;;4994453;28;20255;-76
2021/06/19 01:31:28;;;;;;;0.00;0.00;;;22.40;99.90;;;;;;4994329;28;20177;-76
2021/06/19 01:33:54;;;;;;;13.47;6.80;;;22.40;99.90;;;;;;4976620;28;20184;-76
2021/06/19 01:36:20;;;;;;;11.27;6.17;;;22.30;99.90;;;;;;4992923;28;20226;-76
2021/06/19 01:38:50;;;;;;;11.07;6.73;;;22.30;99.90;;;;;;4992993;28;20204;-76
2021/06/19 01:41:17;;;;;;;11.27;6.47;;;22.30;99.90;;;;;;5009210;28;20183;-76
2021/06/19 01:43:43;;;;;;;9.37;6.13;;;22.20;99.90;;;;;;4993961;28;20169;-76
2021/06/19 01:46:09;;;;;;;11.27;6.57;;;22.20;99.90;;;;;;4991959;28;20211;-76
2021/06/19 01:48:35;;;;;;;11.53;7.33;;;22.20;99.90;;;;;;4994089;28;20263;-76
2021/06/19 01:51:01;;;;;;;14.67;7.30;;;22.20;99.90;;;;;;5008988;28;20259;-77
2021/06/19 01:53:26;;;;;;;12.60;7.20;;;22.20;99.90;;;;;;4992458;28;20184;-76
2021/06/19 01:55:52;;;;;;;8.27;6.67;;;22.20;99.90;;;;;;5008874;28;20193;-77
2021/06/19 01:58:18;;;;;;;10.50;6.70;;;22.30;99.90;;;;;;4994350;28;20292;-76
2021/06/19 02:00:44;;;;;;;14.20;7.00;;;22.20;99.90;;;;;;4992535;28;20339;-76
2021/06/19 02:03:09;;;;;;;12.57;6.73;;;22.20;99.90;;;;;;5009012;28;20191;-76
2021/06/19 02:05:35;;;;;;;12.57;7.30;;;22.20;99.90;;;;;;4993683;28;20277;-76
2021/06/19 02:08:05;;;;;;;16.73;7.70;;;22.20;99.90;;;;;;5009037;28;20188;-77
2021/06/19 02:10:35;;;;;;;9.63;6.20;;;22.20;99.90;;;;;;4992856;28;20165;-76
2021/06/19 02:13:02;;;;;;;12.67;6.83;;;22.20;99.90;;;;;;4992287;28;20611;-76
2021/06/19 02:15:27;;;;;;;14.43;7.47;;;22.30;99.90;;;;;;4993707;28;20192;-76
2021/06/19 02:17:55;;;;;;;10.63;6.47;;;22.40;99.90;;;;;;4992239;28;20620;-76
2021/06/19 02:20:21;;;;;;;14.50;7.20;;;22.50;99.90;;;;;;4992397;28;20222;-76
2021/06/19 02:22:47;;;;;;;13.07;6.43;;;22.40;99.90;;;;;;4992066;28;20590;-76
2021/06/19 02:25:13;;;;;;;8.07;6.93;;;22.30;99.90;;;;;;4991906;28;20192;-76
2021/06/19 02:27:53;;;;;;;10.57;6.47;;;22.20;99.90;;;;;;4991996;28;20663;-76
2021/06/19 02:30:21;;;;;;;11.83;7.33;;;22.10;99.90;;;;;;5008490;28;20176;-76
2021/06/19 02:32:46;;;;;;;11.23;6.90;;;22.10;99.90;;;;;;4992962;28;20188;-76
2021/06/19 02:35:12;;;;;;;11.73;7.10;;;22.00;99.90;;;;;;4991800;28;20204;-76
2021/06/19 02:37:38;;;;;;;12.37;7.83;;;21.90;99.90;;;;;;4993061;28;20179;-76
2021/06/19 02:40:05;;;;;;;15.40;7.67;;;21.80;99.90;;;;;;4991236;28;20722;-76
2021/06/19 02:42:30;;;;;;;13.73;7.93;;;21.70;99.90;;;;;;4991246;28;20275;-76
2021/06/19 02:44:56;;;;;;;12.23;7.93;;;21.70;99.90;;;;;;4991506;28;20259;-76
2021/06/19 02:47:21;;;;;;;14.33;7.20;;;21.70;99.90;;;;;;5007627;28;20212;-76
2021/06/19 02:49:47;;;;;;;13.87;8.03;;;21.60;99.90;;;;;;4991602;28;20176;-76
2021/06/19 02:52:13;;;;;;;10.17;7.30;;;21.70;99.90;;;;;;4992211;28;20183;-75
2021/06/19 02:54:40;;;;;;;16.47;8.03;;;21.60;99.90;;;;;;4991208;28;20180;-76
2021/06/19 02:57:09;;;;;;;12.10;8.13;;;21.60;99.90;;;;;;4991203;28;20216;-75
2021/06/19 02:59:35;;;;;;;11.97;7.70;;;21.50;99.90;;;;;;4975094;28;20580;-76
2021/06/19 03:02:01;;;;;;;13.37;8.10;;;21.50;99.90;;;;;;4975170;28;20182;-75
2021/06/19 03:04:27;;;;;;;14.20;7.40;;;21.40;99.90;;;;;;4991232;28;20629;-76
2021/06/19 03:06:52;;;;;;;11.30;7.43;;;21.30;99.90;;;;;;4991405;28;20216;-76
2021/06/19 03:09:18;;;;;;;13.77;7.90;;;21.30;99.90;;;;;;5007661;28;20238;-76
2021/06/19 03:11:43;;;;;;;12.97;7.27;;;21.30;99.90;;;;;;5007713;28;20239;-76
2021/06/19 03:14:09;;;;;;;13.33;7.77;;;21.20;99.90;;;;;;4991308;28;20183;-76
2021/06/19 03:16:35;;;;;;;13.33;7.77;;;21.20;99.90;;;;;;4991149;28;20273;-76
2021/06/19 03:19:01;;;;;;;12.77;7.00;;;21.20;99.90;;;;;;4991184;28;20198;-76
2021/06/19 03:21:27;;;;;;;15.50;7.47;;;21.20;99.90;;;;;;4991397;28;20176;-76
2021/06/19 03:23:52;;;;;;;11.60;6.90;;;21.30;99.90;;;;;;5007556;28;20255;-76
2021/06/19 03:26:18;;;;;;;13.30;7.53;;;21.30;99.90;;;;;;5007792;28;20283;-76
2021/06/19 03:28:43;;;;;;;10.23;6.17;;;21.30;99.90;;;;;;4991199;28;20199;-76
2021/06/19 03:31:09;;;;;;;11.83;6.60;;;21.30;99.90;;;;;;5007637;28;20234;-76
2021/06/19 03:33:35;;;;;;;12.60;6.70;;;21.20;99.90;;;;;;5007336;28;20180;-76
2021/06/19 03:36:00;;;;;;;11.00;6.50;;;21.20;99.90;;;;;;5007414;28;20200;-76
2021/06/19 03:38:26;;;;;;;12.30;6.50;;;21.20;99.90;;;;;;4991042;28;20195;-76
2021/06/19 03:40:51;;;;;;;7.87;6.40;;;21.20;99.90;;;;;;5007526;28;20271;-76
2021/06/19 03:43:17;;;;;;;9.47;5.97;;;21.20;99.90;;;;;;4991997;28;20176;-76
2021/06/19 03:45:42;;;;;;;8.73;5.67;;;21.20;99.90;;;;;;4992221;28;20200;-75
2021/06/19 03:48:08;;;;;;;10.10;5.93;;;21.30;99.90;;;;;;5007589;28;20177;-76
2021/06/19 03:50:34;;;;;;;7.90;4.30;;;21.40;99.90;;;;;;4991092;28;20183;-76
2021/06/19 03:52:59;;;;;;;6.13;4.10;;;21.50;99.90;;;;;;4990949;28;20195;-76
2021/06/19 03:55:26;;;;;;;9.33;4.30;;;21.60;99.90;;;;;;5007258;28;20188;-76
2021/06/19 03:57:53;;;;;;;6.17;4.60;;;21.70;99.90;;;;;;4974906;28;20176;-76
2021/06/19 04:00:19;;;;;;;5.93;3.47;;;21.90;99.90;;;;;;5007072;28;20247;-75
2021/06/19 04:02:45;;;;;;;6.63;4.17;;;22.00;99.90;;;;;;4992067;28;20212;-75
2021/06/19 04:05:11;;;;;;;6.47;3.63;;;22.00;99.90;;;;;;4991887;28;20238;-75
2021/06/19 04:07:37;;;;;;;6.30;3.40;;;22.00;99.90;;;;;;4991104;28;20161;-75
2021/06/19 04:10:04;;;;;;;8.70;3.27;;;22.20;99.90;;;;;;4993010;28;20177;-76
2021/06/19 04:12:29;;;;;;;4.07;2.83;;;22.20;99.90;;;;;;4994401;28;20184;-75
2021/06/19 04:14:55;;;;;;;5.10;3.47;;;22.20;99.90;;;;;;4994539;28;20180;-75
2021/06/19 04:17:20;;;;;;;8.10;3.50;;;22.20;99.90;;;;;;4994566;28;20188;-76
2021/06/19 04:19:46;;;;;;;5.13;3.10;;;22.30;99.90;;;;;;5010710;28;20215;-76
2021/06/19 04:22:12;;;;;;;5.77;3.03;;;22.30;99.90;;;;;;5010793;28;20184;-75
2021/06/19 04:24:37;;;;;;;5.20;2.47;;;22.30;99.90;;;;;;5010511;28;20263;-75
2021/06/19 04:27:04;;;;;;;4.10;2.60;;;22.30;99.90;;;;;;4994251;28;20279;-75
2021/06/19 04:29:30;;;;;;;4.80;2.57;;;22.30;99.90;;;;;;5010573;28;20247;-76
2021/06/19 04:31:57;;;;;;;5.80;2.50;;;22.40;99.90;;;;;;5010389;28;20275;-76
2021/06/19 04:34:22;;;;;;;4.07;2.40;;;22.40;99.90;;;;;;4993783;28;20187;-76
2021/06/19 04:36:49;;;;;;;4.70;2.07;;;22.40;99.90;;;;;;5010222;28;20204;-76
2021/06/19 04:39:14;;;;;;;4.30;2.50;;;22.40;99.90;;;;;;4993970;28;20239;-76
2021/06/19 04:46:52;;;;;;;4.80;2.43;;;22.40;99.90;;;;;;4995039;28;20199;-76
2021/06/19 04:49:21;;;;;;;4.13;2.30;;;22.50;99.90;;;;;;4993992;28;20585;-76
2021/06/19 04:51:46;;;;;;;4.43;2.27;;;22.50;99.90;;;;;;4993901;28;20180;-76
2021/06/19 04:54:12;;;;;;;2.00;1.80;;;22.50;99.90;;;;;;5009820;28;20172;-76
2021/06/19 04:56:39;;;;;;;4.10;2.30;;;22.50;99.90;;;;;;5009864;28;20192;-76
2021/06/19 04:59:04;;;;;;;5.60;2.30;;;22.60;99.90;;;;;;4977499;28;20196;-76
2021/06/19 05:01:30;;;;;;;2.90;2.27;;;22.60;99.90;;;;;;5010048;28;20591;-75
2021/06/19 05:03:55;;;;;;;5.17;2.30;;;22.60;99.90;;;;;;4993732;28;20232;-76
2021/06/19 05:06:21;;;;;;;5.63;2.50;;;22.60;99.90;;;;;;4994636;28;20208;-75
2021/06/19 05:08:47;;;;;;;3.13;1.90;;;22.70;99.90;;;;;;4977424;28;20186;-76
2021/06/19 05:11:12;;;;;;;2.83;2.20;;;22.70;99.90;;;;;;5010025;28;20260;-76
2021/06/19 05:13:38;;;;;;;4.07;2.17;;;22.80;99.90;;;;;;5009804;28;20190;-76
2021/06/19 05:16:03;;;;;;;3.40;2.23;;;22.80;99.90;;;;;;4977546;28;20705;-76
2021/06/19 05:18:29;;;;;;;3.40;2.13;;;22.80;99.90;;;;;;4993547;28;20655;-76
2021/06/19 05:20:55;;;;;;;3.43;2.40;;;22.90;99.90;;;;;;5009797;28;20250;-76
2021/06/19 05:23:21;;;;;;;3.70;2.17;;;22.90;99.90;;;;;;5009347;28;20240;-76
2021/06/19 05:25:46;;;;;;;5.17;2.40;;;22.90;99.90;;;;;;4993145;28;20688;-76
2021/06/19 05:28:12;;;;;;;2.57;2.00;;;23.00;99.90;;;;;;5009682;28;20176;-76
2021/06/19 05:30:38;;;;;;;2.93;1.97;;;23.10;99.90;;;;;;5009594;28;20323;-76
2021/06/19 05:33:04;;;;;;;4.33;2.17;;;23.20;99.90;;;;;;4992923;28;20181;-76
2021/06/19 05:35:30;;;;;;;3.17;2.10;;;23.20;99.90;;;;;;5009492;28;20339;-76
2021/06/19 05:37:56;;;;;;;2.73;2.20;;;23.30;99.90;;;;;;4992949;28;20256;-76
2021/06/19 05:40:21;;;;;;;5.23;2.27;;;23.40;99.90;;;;;;5009149;28;20234;-76
2021/06/19 05:42:47;;;;;;;2.67;2.20;;;23.80;99.90;;;;;;5006720;28;20168;-76
2021/06/19 05:45:12;;;;;;;2.97;2.00;;;24.20;99.90;;;;;;4993283;28;20204;-76
2021/06/19 05:47:38;;;;;;;6.07;2.15;;;24.60;99.90;;;;;;4992744;28;20172;-76
2021/06/19 05:50:04;;;;;;;6.07;1.90;;;25.10;99.90;;;;;;4992855;28;20180;-75
2021/06/19 05:52:30;;;;;;;2.40;1.90;;;25.70;99.90;;;;;;4992531;28;20192;-75
2021/06/19 05:54:55;;;;;;;4.78;1.60;;;26.10;99.90;;;;;;4992263;28;20176;-74
2021/06/19 05:57:21;;;;;;;2.80;1.83;;;26.10;99.90;;;;;;4993891;28;20164;-75
2021/06/19 05:59:47;;;;;;;3.90;1.40;;;26.00;99.90;;;;;;4992465;28;20212;-74
2021/06/19 06:02:12;;;;;;;3.37;1.50;;;25.80;99.90;;;;;;4993689;28;20164;-73
2021/06/19 06:04:38;;;;;;;4.18;1.75;;;26.00;99.90;;;;;;4991690;28;20179;-73
2021/06/19 06:07:03;;;;;;;2.13;1.50;;;26.10;99.90;;;;;;4992845;28;20212;-72
2021/06/19 06:09:29;;;;;;;3.27;1.30;;;26.30;99.90;;;;;;4998805;28;20244;-72
2021/06/19 06:11:54;;;;;;;1.95;1.50;;;26.20;99.90;;;;;;5006773;28;20268;-75
2021/06/19 06:14:20;;;;;;;3.58;1.42;;;26.10;99.90;;;;;;4991754;28;20564;-73
2021/06/19 06:16:46;;;;;;;2.78;1.50;;;25.90;99.90;;;;;;4991859;28;20239;-73
2021/06/19 06:19:11;;;;;;;2.83;1.30;;;25.70;99.90;;;;;;4994241;28;20226;-73
2021/06/19 06:21:37;;;;;;;2.57;1.30;;;26.40;99.90;;;;;;5004925;28;20204;-73
2021/06/19 06:24:03;;;;;;;3.20;1.50;;;27.00;99.90;;;;;;4989522;28;20188;-75
2021/06/19 06:26:28;;;;;;;2.37;1.37;;;26.60;99.90;;;;;;4989477;28;20213;-74
2021/06/19 06:28:54;;;;;;;2.45;1.20;;;26.20;99.90;;;;;;4991813;28;20172;-74
2021/06/19 06:31:20;;;;;;;3.60;1.40;;;26.30;99.90;;;;;;4991705;28;20234;-74
2021/06/19 06:33:45;;;;;;;1.58;1.20;;;26.60;99.90;;;;;;4996258;28;20576;-77
2021/06/19 06:36:11;;;;;;;4.10;1.63;;;26.60;99.90;;;;;;4977061;28;20203;-78
2021/06/19 06:38:36;;;;;;;3.73;1.30;;;26.60;99.90;;;;;;4992650;28;20176;-79
2021/06/19 06:41:02;;;;;;;1.90;1.40;;;26.20;99.90;;;;;;4993765;28;20176;-79
2021/06/19 06:43:27;;;;;;;3.63;1.80;;;25.70;99.90;;;;;;4993572;28;20207;-78
2021/06/19 06:45:53;;;;;;;5.37;1.80;;;25.30;99.90;;;;;;4992469;28;20604;-78
2021/06/19 06:48:19;;;;;;;4.53;1.70;;;25.20;99.90;;;;;;4991948;28;20686;-78
2021/06/19 06:50:44;;;;;;;2.10;1.77;;;25.40;99.90;;;;;;4975128;28;20180;-78
2021/06/19 06:53:10;;;;;;;3.35;1.98;;;25.80;99.90;;;;;;4999892;28;20184;-78
2021/06/19 06:55:35;;;;;;;3.72;2.25;;;26.10;99.90;;;;;;4991568;28;20250;-78
2021/06/19 06:58:01;;;;;;;2.90;1.67;;;26.10;99.90;;;;;;4992999;28;20534;-78
2021/06/19 07:00:26;;;;;;;3.43;1.60;;;26.20;99.90;;;;;;4975435;28;20263;-77
2021/06/19 07:02:52;;;;;;;3.17;1.57;;;26.30;99.90;;;;;;4976631;28;20187;-77
2021/06/19 07:05:18;;;;;;;2.53;1.70;;;26.50;99.90;;;;;;4976647;28;20683;-79
2021/06/19 07:07:43;;;;;;;5.25;1.85;;;26.50;99.90;;;;;;4995470;28;20172;-79
2021/06/19 07:10:10;;;;;;;2.78;1.40;;;26.60;99.90;;;;;;4994308;28;20179;-79
2021/06/19 07:12:37;;;;;;;4.10;1.60;;;26.60;99.90;;;;;;4993579;28;20176;-79
2021/06/19 07:15:04;;;;;;;1.80;1.43;;;27.10;99.90;;;;;;5010519;28;20199;-78
2021/06/19 07:17:29;;;;;;;3.25;1.65;;;27.40;99.90;;;;;;5008359;28;20192;-78
2021/06/19 07:19:55;;;;;;;2.08;1.55;;;27.60;99.90;;;;;;4983851;28;20204;-77
2021/06/19 07:22:21;;;;;;;4.00;1.55;;;27.70;99.90;;;;;;4989880;28;20176;-78
2021/06/19 07:24:47;;;;;;;3.63;1.80;;;28.00;99.90;;;;;;4975530;28;20196;-77
2021/06/19 07:27:12;;;;;;;5.25;1.67;;;28.40;99.90;;;;;;4991712;28;20271;-77
2021/06/19 07:29:38;;;;;;;3.70;1.55;;;29.10;99.90;;;;;;4991217;28;20190;-77
2021/06/19 07:32:04;;;;;;;2.05;1.30;;;29.60;99.90;;;;;;4984442;28;20180;-77
2021/06/19 07:34:30;;;;;;;2.75;1.60;;;29.40;99.90;;;;;;4988655;28;20185;-77
2021/06/19 07:36:55;;;;;;;3.05;1.83;;;29.60;99.90;;;;;;4990094;28;20220;-77
2021/06/19 07:39:21;;;;;;;2.40;1.40;;;29.80;99.90;;;;;;4991404;28;20208;-78
2021/06/19 07:41:46;;;;;;;4.70;1.70;;;29.50;99.90;;;;;;4991619;28;20652;-77
2021/06/19 07:44:14;;;;;;;2.75;1.80;;;29.10;99.90;;;;;;5009028;28;20199;-80
2021/06/19 07:46:40;;;;;;;10.70;1.77;;;29.00;99.90;;;;;;4999203;28;20193;-80
2021/06/19 07:49:05;;;;;;;2.95;1.50;;;28.90;99.90;;;;;;4981064;28;20561;-80
2021/06/19 07:51:31;;;;;;;12.05;2.47;;;29.00;99.90;;;;;;4997264;28;20185;-79
2021/06/19 07:53:56;;;;;;;2.10;1.52;;;28.90;99.90;;;;;;4996114;28;20184;-78
2021/06/19 07:56:22;;;;;;;4.47;1.52;;;28.60;99.90;;;;;;4996006;28;20219;-77
2021/06/19 07:58:47;;;;;;;3.47;1.40;;;28.40;99.90;;;;;;4996244;28;20211;-78
2021/06/19 08:01:13;;;;;;;3.05;1.60;;;28.50;99.90;;;;;;5001481;28;20177;-80
2021/06/19 08:03:38;;;;;;;2.42;1.60;;;28.60;99.90;;;;;;4982487;28;20296;-79
2021/06/19 08:06:04;;;;;;;2.50;1.42;;;28.20;99.90;;;;;;5001267;28;20212;-78
2021/06/19 08:08:30;;;;;;;2.05;1.40;;;28.00;99.90;;;;;;4981670;28;20211;-77
2021/06/19 08:10:55;;;;;;;3.20;1.50;;;27.90;99.90;;;;;;4981280;28;20176;-79
2021/06/19 08:13:21;;;;;;;3.25;1.70;;;28.00;99.90;;;;;;4982016;28;20326;-80
2021/06/19 08:15:46;;;;;;;2.30;1.70;;;28.00;99.90;;;;;;4980733;28;20259;-78
2021/06/19 08:18:12;;;;;;;3.90;2.00;;;28.00;99.90;;;;;;4995624;28;20664;-79
2021/06/19 08:20:38;;;;;;;2.72;1.98;;;27.90;99.90;;;;;;4979269;28;20222;-77
2021/06/19 08:23:04;;;;;;;8.25;1.80;;;27.70;99.90;;;;;;4996780;28;20564;-81
2021/06/19 08:25:30;;;;;;;7.97;2.05;;;27.70;99.90;;;;;;4981101;28;20189;-81
2021/06/19 08:27:55;;;;;;;2.85;1.60;;;27.70;99.90;;;;;;4993759;28;20659;-80
2021/06/19 08:30:21;;;;;;;3.60;1.73;;;27.80;99.90;;;;;;4962259;28;20189;-78
2021/06/19 08:32:47;;;;;;;2.63;1.70;;;28.10;99.90;;;;;;4978935;28;20645;-80
2021/06/19 08:35:12;;;;;;;2.35;1.52;;;28.30;99.90;;;;;;4997275;28;20200;-81
2021/06/19 08:37:38;;;;;;;6.85;1.73;;;28.20;99.90;;;;;;4983378;28;20176;-79
2021/06/19 08:40:05;;;;;;;2.47;1.63;;;28.30;99.90;;;;;;4994821;28;20215;-78
2021/06/19 08:42:31;;;;;;;2.67;1.80;;;28.40;99.90;;;;;;4980492;28;20660;-78
2021/06/19 08:44:57;;;;;;;1.95;1.60;;;28.30;99.90;;;;;;5009851;28;20192;-79
2021/06/19 08:47:24;;;;;;;2.55;1.60;;;28.40;99.90;;;;;;4996877;28;20196;-79
2021/06/19 08:49:49;;;;;;;2.85;1.80;;;28.50;99.90;;;;;;4981868;28;20180;-79
2021/06/19 08:52:15;;;;;;;8.10;1.85;;;28.50;99.90;;;;;;4994595;28;20188;-78
2021/06/19 08:54:40;;;;;;;3.75;1.90;;;28.50;99.90;;;;;;4974493;28;20275;-79
2021/06/19 08:57:10;;;;;;;6.72;2.50;;;28.60;99.90;;;;;;4979304;28;20282;-78
2021/06/19 08:59:45;;;;;;;2.17;1.75;;;28.40;99.90;;;;;;5003965;28;20199;-79
2021/06/19 09:02:10;;;;;;;3.08;2.63;;;28.30;99.90;;;;;;5002399;28;20167;-80
2021/06/19 09:04:55;;;;;;;2.03;1.80;;;28.30;99.90;;;;;;4976612;28;20230;-74
2021/06/19 09:07:54;;;;;;;3.35;2.22;;;28.20;99.90;;;;;;4992233;28;20733;-75
2021/06/19 09:10:24;;;;;;;2.55;2.17;;;28.10;99.90;;;;;;4971409;28;20702;-79
2021/06/19 09:13:22;;;;;;;2.53;1.90;;;28.10;99.90;;;;;;4986959;28;20181;-74
2021/06/19 09:15:49;;;;;;;4.35;2.10;;;28.00;99.90;;;;;;4987379;28;20270;-79
2021/06/19 09:18:22;;;;;;;3.22;1.85;;;28.00;99.90;;;;;;4989026;28;20662;-76
2021/06/19 09:20:55;;;;;;;6.30;2.17;;;27.90;99.90;;;;;;4991505;28;20584;-82
2021/06/19 09:24:00;;;;;;;3.92;2.20;;;28.00;99.90;;;;;;4987358;28;20176;-76
2021/06/19 09:26:27;;;;;;;3.08;1.95;;;28.00;99.90;;;;;;4990286;28;20605;-79
2021/06/19 09:29:15;;;;;;;1.75;1.65;;;28.10;99.90;;;;;;4992700;28;20267;-78
2021/06/19 09:31:41;;;;;;;2.35;2.15;;;28.00;99.90;;;;;;4965879;28;20185;-74
2021/06/19 09:34:11;;;;;;;3.33;1.70;;;28.10;99.90;;;;;;4988401;28;20202;-76
2021/06/19 09:36:44;;;;;;;2.75;2.00;;;27.90;99.90;;;;;;4998878;28;20192;-75
2021/06/19 09:39:11;;;;;;;3.05;2.00;;;28.00;99.90;;;;;;5007918;28;20203;-79
2021/06/19 09:41:44;;;;;;;2.25;1.85;;;27.90;99.90;;;;;;4985214;28;20461;-75
2021/06/19 09:44:10;;;;;;;3.85;2.08;;;27.80;99.90;;;;;;5001773;28;20498;-76
2021/06/19 09:46:36;;;;;;;3.97;2.30;;;27.80;99.90;;;;;;5007014;28;20265;-76
2021/06/19 09:49:12;;;;;;;2.47;2.20;;;27.80;99.90;;;;;;4981625;28;20191;-76
2021/06/19 09:51:46;;;;;;;2.60;2.00;;;27.90;99.90;;;;;;5007681;28;20188;-74
2021/06/19 09:54:12;;;;;;;3.75;2.42;;;28.00;99.90;;;;;;4993251;28;20275;-74
2021/06/19 09:56:54;;;;;;;3.47;2.40;;;28.10;99.90;;;;;;4996584;28;20295;-74
2021/06/19 09:59:30;;;;;;;2.90;2.58;;;28.20;99.90;;;;;;4978015;28;20204;-76
2021/06/19 10:01:58;;;;;;;3.90;1.92;;;28.30;99.90;;;;;;5007796;28;20179;-75
2021/06/19 10:04:25;;;;;;;3.80;2.40;;;28.20;99.90;;;;;;4976547;28;20545;-76
2021/06/19 10:06:51;;;;;;;3.85;2.38;;;28.20;99.90;;;;;;4989943;28;20214;-73
2021/06/19 10:09:17;;;;;;;5.53;2.20;;;28.20;99.90;;;;;;5003762;28;20211;-75
2021/06/19 10:11:44;;;;;;;4.15;2.33;;;28.20;99.90;;;;;;4990094;28;20259;-75
2021/06/19 10:14:14;;;;;;;3.75;2.38;;;28.30;99.90;;;;;;4996905;28;20176;-74
2021/06/19 10:16:42;;;;;;;4.80;2.30;;;28.20;99.90;;;;;;4990791;28;20275;-74
2021/06/19 10:19:08;;;;;;;2.72;1.90;;;28.10;99.90;;;;;;4991676;28;20227;-73
2021/06/19 10:21:34;;;;;;;2.67;2.30;;;28.10;99.90;;;;;;4973329;28;20187;-74
2021/06/19 10:23:59;;;;;;;4.30;2.33;;;28.20;99.90;;;;;;4976657;28;20180;-74
2021/06/19 10:26:25;;;;;;;2.85;2.47;;;28.30;99.90;;;;;;4989627;28;20193;-74
2021/06/19 10:28:53;;;;;;;3.33;2.63;;;28.40;99.90;;;;;;4993163;28;20275;-74
2021/06/19 10:31:18;;;;;;;3.42;2.65;;;28.20;99.90;;;;;;4993744;28;20268;-74
2021/06/19 10:33:44;;;;;;;4.18;2.20;;;28.30;99.90;;;;;;4994208;28;20200;-75
2021/06/19 10:36:11;;;;;;;3.70;2.00;;;28.40;99.90;;;;;;4996660;28;20207;-75
2021/06/19 10:38:53;;;;;;;4.55;2.40;;;28.40;99.90;;;;;;4991916;28;20172;-75
2021/06/19 10:41:20;;;;;;;3.70;2.22;;;28.50;99.90;;;;;;4999143;28;20204;-75
2021/06/19 10:43:47;;;;;;;2.65;2.00;;;28.60;99.90;;;;;;4975900;28;20176;-75
2021/06/19 10:46:32;;;;;;;1.70;1.27;;;28.60;99.90;;;;;;5002934;28;20201;-76
2021/06/19 10:48:59;;;;;;;1.73;1.38;;;28.60;99.90;;;;;;4993773;28;20181;-76
2021/06/19 10:51:30;;;;;;;5.68;1.40;;;28.80;99.90;;;;;;5007650;28;20176;-76
2021/06/19 10:54:25;;;;;;;1.70;1.60;;;28.90;99.90;;;;;;4996420;28;20572;-77
2021/06/19 10:56:52;;;;;;;2.80;2.20;;;29.00;99.90;;;;;;4996436;28;20196;-78
2021/06/19 10:59:20;;;;;;;3.15;1.95;;;29.00;99.90;;;;;;4995591;28;20207;-74
2021/06/19 11:01:45;;;;;;;1.70;1.60;;;28.90;99.90;;;;;;4976614;28;20186;-77
2021/06/19 11:04:39;;;;;;;2.30;1.55;;;28.90;99.90;;;;;;4992912;28;20561;-74
2021/06/19 11:07:17;;;;;;;2.33;1.60;;;28.70;99.90;;;;;;4991504;28;20215;-73
2021/06/19 11:09:44;;;;;;;1.77;1.40;;;28.80;99.90;;;;;;4978083;28;20520;-74
2021/06/19 11:12:19;;;;;;;1.90;1.70;;;29.00;99.90;;;;;;4992818;28;20176;-74
2021/06/19 11:14:51;;;;;;;1.73;1.23;;;29.00;99.90;;;;;;4994985;28;20626;-75
2021/06/19 11:17:23;;;;;;;3.40;1.30;;;29.00;99.90;;;;;;4993322;28;20210;-74
2021/06/19 11:19:51;;;;;;;3.95;1.92;;;29.10;99.90;;;;;;4992498;28;20208;-72
2021/06/19 11:22:36;;;;;;;1.85;1.55;;;29.20;99.90;;;;;;4991321;28;20172;-74
2021/06/19 11:25:41;;;;;;;1.33;1.10;;;29.40;99.90;;;;;;4991630;28;20896;-75
2021/06/19 11:28:09;;;;;;;2.30;1.20;;;29.40;99.90;;;;;;4992515;28;20637;-74
2021/06/19 11:30:38;;;;;;;1.30;1.20;;;29.30;99.90;;;;;;4992099;28;20235;-75
2021/06/19 11:33:15;;;;;;;1.70;1.33;;;29.40;99.90;;;;;;4992799;28;20173;-75
2021/06/19 11:35:42;;;;;;;1.55;1.23;;;29.50;99.90;;;;;;4992522;28;20203;-75
2021/06/19 11:38:07;;;;;;;1.50;1.00;;;29.30;99.90;;;;;;4993287;28;20180;-77
2021/06/19 11:40:34;;;;;;;3.78;1.40;;;29.30;99.90;;;;;;4976364;28;20208;-74
2021/06/19 11:43:00;;;;;;;1.20;1.00;;;29.40;99.90;;;;;;4988097;28;20180;-76
2021/06/19 11:45:25;;;;;;;2.40;1.20;;;29.40;99.90;;;;;;4991818;28;20223;-75
2021/06/19 11:48:08;;;;;;;1.77;1.10;;;29.50;99.90;;;;;;4988633;28;20591;-75
2021/06/19 11:50:38;;;;;;;1.10;1.00;;;29.60;99.90;;;;;;4984590;28;20172;-76
2021/06/19 11:53:29;;;;;;;2.95;1.10;;;29.50;99.90;;;;;;4980083;28;20215;-76
2021/06/19 11:56:26;;;;;;;2.05;1.20;;;29.40;99.90;;;;;;4984599;28;20200;-74
2021/06/19 11:58:55;;;;;;;2.08;1.10;;;29.30;99.90;;;;;;4999730;28;20188;-74
2021/06/19 12:01:23;;;;;;;1.13;0.98;;;29.30;99.90;;;;;;4998434;28;20164;-75
2021/06/19 12:03:49;;;;;;;2.30;1.20;;;29.30;99.90;;;;;;5000315;28;20176;-75
2021/06/19 12:06:15;;;;;;;2.22;1.23;;;29.50;99.90;;;;;;4987947;28;20705;-76
2021/06/19 12:08:41;;;;;;;2.40;1.10;;;29.50;99.90;;;;;;4999449;28;20609;-75
2021/06/19 12:11:06;;;;;;;1.92;1.15;;;29.50;99.90;;;;;;4991776;28;20177;-74
2021/06/19 12:13:36;;;;;;;1.48;1.17;;;29.50;99.90;;;;;;4995061;28;20177;-74
2021/06/19 12:16:04;;;;;;;2.22;1.00;;;29.60;99.90;;;;;;4997366;28;20205;-76
2021/06/19 12:18:29;;;;;;;1.48;0.98;;;29.60;99.90;;;;;;4991655;28;20243;-77
2021/06/19 12:21:03;;;;;;;4.68;1.00;;;29.70;99.90;;;;;;4991511;28;20691;-78
2021/06/19 12:23:33;;;;;;;2.13;0.70;;;29.70;99.90;;;;;;4986443;28;20247;-74
2021/06/19 12:26:17;;;;;;;1.33;0.70;;;29.60;99.90;;;;;;4990411;28;20196;-74
2021/06/19 12:28:43;;;;;;;2.13;0.80;;;29.50;99.90;;;;;;4995421;28;20247;-78
2021/06/19 12:31:09;;;;;;;2.10;0.90;;;29.60;99.90;;;;;;4983171;28;20555;-79
2021/06/19 12:33:35;;;;;;;1.70;0.90;;;29.70;99.90;;;;;;4982393;28;20187;-79
2021/06/19 12:36:01;;;;;;;2.88;0.70;;;29.80;99.90;;;;;;5000158;28;20212;-78
2021/06/19 12:38:28;;;;;;;2.60;1.00;;;29.80;99.90;;;;;;4982664;28;20218;-80
2021/06/19 12:40:55;;;;;;;1.10;0.80;;;29.80;99.90;;;;;;4994073;28;20660;-78
2021/06/19 12:43:20;;;;;;;2.40;0.95;;;30.00;99.90;;;;;;4998092;28;20550;-80
2021/06/19 12:45:48;;;;;;;2.78;1.60;;;29.90;99.90;;;;;;4997715;28;20188;-80
2021/06/19 12:48:35;;;;;;;2.35;1.00;;;30.00;99.90;;;;;;4999834;28;20184;-79
2021/06/19 12:51:02;;;;;;;1.40;0.90;;;29.90;99.90;;;;;;4998305;28;20207;-79
2021/06/19 12:53:31;;;;;;;1.40;1.02;;;29.90;99.90;;;;;;4997500;28;20550;-79